Time;durP1;ratioP1;P1;durP2;ratioP2;P2;SDS_P1;SDS_P2;PMS_P1;PMS_P2;Temp;Humidity;BMP_temperature;BMP_pressure;BME280_temperature;BME280_humidity;BME280_pressure;Samples;Min_cycle;Max_cycle;Signal;HPM_P1;HPM_P2
2022/05/06 00:00:11;;;;;;;12.23;8.43;;;;;;;20.18;48.44;102690.75;5043359;28;20059;-47
2022/05/06 00:02:38;;;;;;;12.38;8.50;;;;;;;20.18;48.46;102687.16;5040591;28;20136;-49
2022/05/06 00:05:06;;;;;;;14.48;8.60;;;;;;;20.17;48.58;102690.84;5041327;28;20049;-52
2022/05/06 00:07:33;;;;;;;12.38;8.38;;;;;;;20.16;48.63;102689.16;5040938;28;20049;-50
2022/05/06 00:10:04;;;;;;;12.45;8.02;;;;;;;20.15;48.83;102684.75;5040322;28;20045;-51
2022/05/06 00:12:31;;;;;;;13.10;7.68;;;;;;;20.15;48.51;102688.28;5041602;28;20049;-50
2022/05/06 00:14:58;;;;;;;13.27;8.52;;;;;;;20.14;48.48;102691.97;5043833;28;20101;-51
2022/05/06 00:17:24;;;;;;;12.52;8.43;;;;;;;20.15;48.43;102684.75;5047941;28;20053;-50
2022/05/06 00:19:51;;;;;;;13.05;8.25;;;;;;;20.13;49.00;102676.78;5043930;28;20049;-52
2022/05/06 00:22:19;;;;;;;12.35;7.65;;;;;;;20.14;49.20;102683.91;5056959;28;20040;-51
2022/05/06 00:24:45;;;;;;;14.20;8.43;;;;;;;20.14;48.64;102683.00;5065613;28;20434;-50
2022/05/06 00:27:12;;;;;;;12.02;8.18;;;;;;;20.13;48.63;102682.16;5067593;28;20048;-49
2022/05/06 00:29:38;;;;;;;13.00;8.57;;;;;;;20.13;49.14;102681.31;5065505;28;20382;-49
2022/05/06 00:32:05;;;;;;;12.10;7.82;;;;;;;20.11;48.92;102684.13;5066144;28;20049;-51
2022/05/06 00:34:32;;;;;;;11.75;7.80;;;;;;;20.10;48.65;102677.03;5068676;28;20054;-51
2022/05/06 00:36:59;;;;;;;13.52;8.35;;;;;;;20.10;49.06;102681.53;5065998;28;20044;-51
2022/05/06 00:39:26;;;;;;;12.77;8.07;;;;;;;20.10;49.18;102679.75;5069089;28;20084;-49
2022/05/06 00:41:54;;;;;;;12.48;7.75;;;;;;;20.09;49.37;102680.69;5069294;28;20063;-49
2022/05/06 00:44:22;;;;;;;10.32;7.35;;;;;;;20.08;49.44;102673.59;5068343;28;20056;-53
2022/05/06 00:46:50;;;;;;;13.05;8.43;;;;;;;20.08;48.74;102673.59;5063521;28;20403;-49
2022/05/06 00:49:17;;;;;;;12.20;8.13;;;;;;;20.08;48.65;102673.59;5064486;28;20044;-48
2022/05/06 00:51:44;;;;;;;12.13;7.75;;;;;;;20.07;48.87;102681.81;5067284;28;20171;-48
2022/05/06 00:54:11;;;;;;;13.68;8.77;;;;;;;20.07;49.50;102677.28;5065474;28;20131;-49
2022/05/06 00:56:38;;;;;;;14.15;8.88;;;;;;;20.06;48.89;102672.00;5066241;28;20306;-47
2022/05/06 00:59:05;;;;;;;11.82;7.68;;;;;;;20.05;48.73;102676.53;5066314;28;20043;-48
2022/05/06 01:01:31;;;;;;;11.13;7.60;;;;;;;20.04;49.11;102672.13;5066211;28;20394;-48
2022/05/06 01:03:58;;;;;;;14.52;8.55;;;;;;;20.03;48.83;102670.44;5063287;28;20055;-48
2022/05/06 01:06:25;;;;;;;12.90;8.07;;;;;;;20.04;48.70;102673.97;5062777;28;20432;-47
2022/05/06 01:08:52;;;;;;;10.90;7.25;;;;;;;20.02;49.29;102671.41;5067537;28;20036;-48
2022/05/06 01:11:19;;;;;;;12.10;7.63;;;;;;;20.03;49.30;102672.28;5061935;28;20080;-48
2022/05/06 01:13:47;;;;;;;11.50;7.15;;;;;;;20.02;49.25;102670.53;5067801;28;20044;-49
2022/05/06 01:16:14;;;;;;;10.50;6.75;;;;;;;20.01;48.93;102671.53;5066482;28;20132;-49
2022/05/06 01:18:41;;;;;;;11.63;7.28;;;;;;;20.00;49.50;102670.66;5064694;28;20056;-49
2022/05/06 01:21:09;;;;;;;9.50;6.72;;;;;;;20.00;48.97;102676.06;5065377;28;20033;-48
2022/05/06 01:23:37;;;;;;;10.35;7.30;;;;;;;19.99;49.05;102679.72;5060045;28;20404;-47
2022/05/06 01:26:04;;;;;;;12.32;7.13;;;;;;;19.98;49.55;102675.34;5059474;28;20130;-50
2022/05/06 01:28:33;;;;;;;9.90;6.90;;;;;;;19.97;49.05;102677.13;5067788;28;20127;-48
2022/05/06 01:31:01;;;;;;;11.57;7.07;;;;;;;19.98;49.58;102675.34;5067482;28;20074;-50
2022/05/06 01:33:30;;;;;;;9.98;6.53;;;;;;;19.97;49.10;102670.91;5067450;28;20338;-48
2022/05/06 01:36:01;;;;;;;9.93;6.63;;;;;;;19.96;49.22;102674.59;5066016;28;20052;-51
2022/05/06 01:38:40;;;;;;;9.07;6.32;;;;;;;19.97;48.78;102676.28;5068478;28;20079;-51
2022/05/06 01:41:13;;;;;;;10.45;6.93;;;;;;;19.94;49.18;102677.41;5068016;28;20044;-50
2022/05/06 01:44:03;;;;;;;8.75;6.07;;;;;;;19.94;49.27;102673.88;5059841;28;20051;-50
2022/05/06 01:46:30;;;;;;;8.77;6.43;;;;;;;19.93;49.33;102672.13;5068922;28;20147;-49
2022/05/06 01:48:57;;;;;;;10.38;7.05;;;;;;;19.94;49.85;102681.94;5067597;28;20058;-49
2022/05/06 01:51:26;;;;;;;9.50;6.55;;;;;;;19.90;49.63;102669.66;5069117;28;20066;-48
2022/05/06 01:53:53;;;;;;;9.50;6.45;;;;;;;19.90;49.49;102670.56;5065703;28;20075;-49
2022/05/06 01:56:20;;;;;;;10.77;6.25;;;;;;;19.88;49.67;102682.41;5050495;28;20048;-49
2022/05/06 01:58:48;;;;;;;8.57;5.90;;;;;;;19.88;49.11;102687.78;5064993;28;20165;-49
2022/05/06 02:01:14;;;;;;;8.50;6.18;;;;;;;19.87;49.81;102686.09;5067092;28;20063;-46
2022/05/06 02:06:27;;;;;;;9.85;5.60;;;;;;;19.84;50.17;102691.69;5064720;28;20049;-49
2022/05/06 02:08:53;;;;;;;8.57;5.57;;;;;;;19.83;49.71;102693.53;5061942;28;20098;-50
2022/05/06 02:11:20;;;;;;;7.75;6.05;;;;;;;19.83;49.32;102695.38;5066995;28;20047;-47
2022/05/06 02:13:46;;;;;;;7.63;5.78;;;;;;;19.81;49.26;102692.78;5056274;28;20049;-48
2022/05/06 02:16:13;;;;;;;7.53;5.43;;;;;;;19.81;49.38;102691.94;5058913;28;20048;-47
2022/05/06 02:18:40;;;;;;;8.27;5.75;;;;;;;19.80;49.85;102690.22;5059309;28;20086;-49
2022/05/06 02:21:06;;;;;;;8.73;5.40;;;;;;;19.79;49.61;102691.22;5057438;28;20424;-51
2022/05/06 02:23:33;;;;;;;6.30;4.90;;;;;;;19.77;50.10;102685.94;5059296;28;20059;-47
2022/05/06 02:26:00;;;;;;;9.13;5.45;;;;;;;19.78;49.94;102686.78;5056840;28;20048;-49
2022/05/06 02:28:27;;;;;;;7.35;5.60;;;;;;;19.77;49.47;102679.69;5059274;28;20478;-49
2022/05/06 02:33:39;;;;;;;7.50;4.90;;;;;;;19.73;49.94;102685.31;5058314;28;20039;-47
2022/05/06 02:36:06;;;;;;;7.65;4.90;;;;;;;19.74;49.91;102680.81;5059500;28;20171;-49
2022/05/06 02:38:32;;;;;;;7.47;4.97;;;;;;;19.72;50.11;102683.59;5055455;28;20074;-47
2022/05/06 02:40:59;;;;;;;5.93;4.50;;;;;;;19.72;49.36;102678.22;5057727;28;20047;-45
2022/05/06 02:43:26;;;;;;;5.82;4.55;;;;;;;19.71;49.59;102681.03;5058099;28;20268;-46
2022/05/06 02:45:52;;;;;;;6.65;4.68;;;;;;;19.70;50.19;102682.03;5058072;28;20123;-44
2022/05/06 02:48:19;;;;;;;5.60;4.28;;;;;;;19.70;50.05;102682.88;5059039;28;20076;-47
2022/05/06 02:50:47;;;;;;;6.80;4.32;;;;;;;19.71;49.70;102681.03;5058397;28;20151;-46
2022/05/06 02:53:13;;;;;;;6.53;4.65;;;;;;;19.69;50.32;102677.59;5058519;28;20053;-47
2022/05/06 02:55:41;;;;;;;6.72;4.13;;;;;;;19.68;49.57;102681.28;5056379;28;20044;-46
2022/05/06 02:58:09;;;;;;;6.47;4.60;;;;;;;19.68;50.12;102679.44;5057920;28;20046;-46
2022/05/06 03:00:36;;;;;;;6.57;4.68;;;;;;;19.68;50.38;102682.13;5056828;28;20159;-48
2022/05/06 03:03:03;;;;;;;5.40;4.25;;;;;;;19.67;50.04;102679.56;5058861;28;20056;-46
2022/05/06 03:05:30;;;;;;;5.72;3.83;;;;;;;19.67;50.16;102679.56;5059192;28;20055;-45
2022/05/06 03:07:57;;;;;;;6.05;4.05;;;;;;;19.66;49.67;102684.09;5056885;28;20068;-45
2022/05/06 03:10:24;;;;;;;6.45;3.85;;;;;;;19.65;50.25;102687.75;5059583;28;20044;-46
2022/05/06 03:12:55;;;;;;;5.18;3.92;;;;;;;19.65;50.29;102690.44;5059555;28;20053;-47
2022/05/06 03:15:24;;;;;;;5.07;4.00;;;;;;;19.65;49.58;102686.88;5063839;28;20135;-45
2022/05/06 03:17:51;;;;;;;4.63;3.55;;;;;;;19.65;49.74;102686.88;5063907;28;20086;-47
2022/05/06 03:20:19;;;;;;;4.50;3.50;;;;;;;19.64;50.13;102679.81;5062655;28;20048;-48
2022/05/06 03:22:46;;;;;;;7.90;4.05;;;;;;;19.62;50.13;102685.31;5062580;28;20091;-49
2022/05/06 03:25:14;;;;;;;4.57;3.40;;;;;;;19.62;50.14;102685.31;5057256;28;20044;-45
2022/05/06 03:27:59;;;;;;;10.02;4.07;;;;;;;19.62;49.69;102682.63;5057673;28;20331;-46
2022/05/06 03:30:27;;;;;;;5.70;3.70;;;;;;;19.61;49.99;102682.69;5057139;28;20056;-49
2022/05/06 03:32:55;;;;;;;4.22;3.28;;;;;;;19.61;50.37;102680.00;5056621;28;20080;-49
2022/05/06 03:35:22;;;;;;;3.88;3.20;;;;;;;19.61;50.36;102688.06;5056838;28;20624;-51
2022/05/06 03:37:49;;;;;;;4.57;3.22;;;;;;;19.60;49.71;102686.38;5060273;28;20055;-48
2022/05/06 03:40:15;;;;;;;4.05;3.42;;;;;;;19.59;50.09;102679.28;5067449;28;20471;-47
2022/05/06 03:42:42;;;;;;;3.70;2.85;;;;;;;19.58;49.61;102681.13;5059485;28;20131;-49
2022/05/06 03:45:09;;;;;;;6.32;3.20;;;;;;;19.57;50.18;102675.84;5057048;28;20049;-49
2022/05/06 03:47:36;;;;;;;4.55;3.10;;;;;;;19.56;50.29;102682.19;5052563;28;20049;-49
2022/05/06 03:52:50;;;;;;;4.13;2.78;;;;;;;19.56;50.04;102679.50;5057104;28;20040;-48
2022/05/06 03:55:18;;;;;;;3.60;2.75;;;;;;;19.55;49.48;102681.34;5064782;28;20037;-47
2022/05/06 03:57:44;;;;;;;3.78;3.10;;;;;;;19.54;50.06;102676.94;5045042;28;20045;-48
2022/05/06 04:00:13;;;;;;;8.65;3.47;;;;;;;19.55;50.42;102673.28;5067796;28;20113;-48
2022/05/06 04:02:40;;;;;;;8.25;3.08;;;;;;;19.54;50.53;102689.50;5068521;28;20040;-50
2022/05/06 04:05:07;;;;;;;15.68;3.30;;;;;;;19.53;50.62;102685.97;5070475;28;20373;-47
2022/05/06 04:07:34;;;;;;;12.05;3.33;;;;;;;19.52;50.86;102678.88;5069500;28;20067;-48
2022/05/06 04:10:00;;;;;;;7.97;3.30;;;;;;;19.53;50.40;102674.38;5062724;28;20048;-48
2022/05/06 04:12:27;;;;;;;12.13;3.28;;;;;;;19.52;50.40;102670.81;5058889;28;20059;-48
2022/05/06 04:14:54;;;;;;;9.93;3.13;;;;;;;19.52;50.46;102676.19;5063213;28;20059;-48
2022/05/06 04:17:21;;;;;;;12.50;3.33;;;;;;;19.50;50.39;102670.09;5063866;28;20044;-48
2022/05/06 04:25:20;;;;;;;6.03;3.00;;;;;;;19.48;49.93;102678.25;5069895;28;20047;-46
2022/05/06 04:27:50;;;;;;;14.15;3.28;;;;;;;19.47;50.04;102683.78;5068234;28;20070;-44
2022/05/06 04:30:17;;;;;;;9.02;3.90;;;;;;;19.47;50.04;102686.47;5069711;28;20040;-47
2022/05/06 04:32:43;;;;;;;7.75;3.67;;;;;;;19.45;50.29;102681.19;5068224;28;20408;-46
2022/05/06 04:35:10;;;;;;;9.30;3.85;;;;;;;19.47;49.93;102681.09;5072297;28;20057;-47
2022/05/06 04:37:37;;;;;;;8.07;3.53;;;;;;;19.46;49.92;102685.59;5053672;28;20063;-44
2022/05/06 04:40:04;;;;;;;8.50;3.78;;;;;;;19.47;50.19;102691.84;5070445;28;20040;-45
2022/05/06 04:42:31;;;;;;;8.90;4.18;;;;;;;19.46;50.11;102690.13;5071026;28;20048;-48
2022/05/06 04:44:57;;;;;;;12.23;4.20;;;;;;;19.46;50.12;102687.44;5069384;28;20205;-46
2022/05/06 04:47:24;;;;;;;10.35;3.90;;;;;;;19.45;50.34;102697.31;5070537;28;20092;-47
2022/05/06 04:49:51;;;;;;;10.30;4.07;;;;;;;19.45;49.98;102699.16;5065382;28;20044;-45
2022/05/06 04:52:17;;;;;;;7.63;4.15;;;;;;;19.45;49.98;102700.00;5069657;28;20086;-44
2022/05/06 04:54:44;;;;;;;10.45;4.53;;;;;;;19.46;50.22;102699.06;5066865;28;20089;-45
2022/05/06 04:57:10;;;;;;;7.25;4.22;;;;;;;19.46;49.70;102696.38;5070435;28;20135;-46
2022/05/06 04:59:37;;;;;;;12.32;4.13;;;;;;;19.47;49.76;102703.44;5071446;28;20044;-44
2022/05/06 05:02:04;;;;;;;7.65;4.60;;;;;;;19.46;49.79;102709.81;5069644;28;20372;-47
2022/05/06 05:04:30;;;;;;;13.52;4.57;;;;;;;19.46;49.59;102703.59;5067335;28;20408;-45
2022/05/06 05:06:57;;;;;;;8.88;4.68;;;;;;;19.45;50.18;102712.59;5070312;28;20309;-47
2022/05/06 05:09:24;;;;;;;11.52;5.07;;;;;;;19.45;49.46;102707.22;5070471;28;20084;-47
2022/05/06 05:11:51;;;;;;;8.25;4.32;;;;;;;19.45;50.02;102708.06;5067458;28;20068;-44
2022/05/06 05:14:17;;;;;;;7.53;4.10;;;;;;;19.45;49.93;102702.69;5069801;28;20052;-49
2022/05/06 05:16:44;;;;;;;7.47;4.57;;;;;;;19.44;49.67;102716.28;5071595;28;20066;-43
2022/05/06 05:19:11;;;;;;;7.35;4.15;;;;;;;19.43;49.28;102714.56;5070301;28;20056;-44
2022/05/06 05:21:37;;;;;;;10.77;4.63;;;;;;;19.44;49.88;102716.28;5070665;28;20123;-46
2022/05/06 05:24:04;;;;;;;9.13;4.35;;;;;;;19.43;49.37;102714.56;5070668;28;20075;-45
2022/05/06 05:26:30;;;;;;;9.35;4.75;;;;;;;19.43;49.90;102714.56;5070618;28;20119;-43
2022/05/06 05:28:57;;;;;;;8.85;4.18;;;;;;;19.41;49.95;102711.97;5068932;28;20063;-44
2022/05/06 05:31:23;;;;;;;7.60;4.32;;;;;;;19.41;49.48;102722.72;5069280;28;20327;-44
2022/05/06 05:33:52;;;;;;;8.18;4.68;;;;;;;19.43;49.85;102715.41;5069391;28;20086;-45
2022/05/06 05:36:19;;;;;;;7.78;4.90;;;;;;;19.42;49.24;102721.78;5068695;28;20432;-44
2022/05/06 05:38:45;;;;;;;9.02;5.03;;;;;;;19.42;49.24;102718.25;5066514;28;20396;-46
2022/05/06 05:41:12;;;;;;;8.43;4.68;;;;;;;19.43;49.53;102728.00;5065879;28;20083;-46
2022/05/06 05:49:09;;;;;;;7.28;3.75;;;;;;;19.44;49.50;102722.50;5069151;28;20106;-46
2022/05/06 05:51:36;;;;;;;8.38;4.55;;;;;;;19.45;49.77;102720.66;5070358;28;20071;-45
2022/05/06 05:54:02;;;;;;;9.18;4.18;;;;;;;19.44;49.27;102724.34;5070749;28;20464;-46
2022/05/06 05:56:30;;;;;;;6.07;3.72;;;;;;;19.45;49.48;102726.06;5068711;28;20068;-45
2022/05/06 05:58:56;;;;;;;8.02;3.95;;;;;;;19.44;49.26;102732.41;5068881;28;20532;-45
2022/05/06 06:01:23;;;;;;;6.40;4.03;;;;;;;19.43;49.58;102720.81;5069864;28;20055;-45
2022/05/06 06:03:49;;;;;;;6.57;3.97;;;;;;;19.44;49.73;102732.41;5067388;28;20048;-46
2022/05/06 06:06:16;;;;;;;5.47;3.67;;;;;;;19.44;49.02;102725.19;5068798;28;20074;-46
2022/05/06 06:08:43;;;;;;;8.55;4.38;;;;;;;19.44;49.83;102718.97;5071118;28;20074;-46
2022/05/06 06:11:10;;;;;;;6.78;4.18;;;;;;;19.45;48.93;102724.22;5068986;28;20455;-45
2022/05/06 06:13:37;;;;;;;5.45;3.60;;;;;;;19.45;49.41;102717.97;5071660;28;20123;-48
2022/05/06 06:16:04;;;;;;;5.85;3.92;;;;;;;19.46;49.31;102720.56;5069760;28;20094;-46
2022/05/06 06:18:31;;;;;;;6.10;3.92;;;;;;;19.46;49.49;102720.56;5071651;28;20098;-48
2022/05/06 06:20:57;;;;;;;8.25;4.38;;;;;;;19.48;49.36;102733.88;5071545;28;20410;-48
2022/05/06 06:23:24;;;;;;;5.25;3.33;;;;;;;19.47;48.88;102735.72;5067342;28;20060;-49
2022/05/06 06:25:56;;;;;;;8.57;3.75;;;;;;;19.49;49.16;102730.22;5064218;28;20060;-48
2022/05/06 06:28:22;;;;;;;8.20;3.95;;;;;;;19.48;48.73;102733.88;5068712;28;20051;-48
2022/05/06 06:30:49;;;;;;;6.75;3.90;;;;;;;19.49;49.04;102735.59;5053950;28;20055;-48
2022/05/06 06:33:16;;;;;;;5.25;3.97;;;;;;;19.49;49.10;102740.97;5063897;28;20048;-52
2022/05/06 06:35:43;;;;;;;6.60;3.88;;;;;;;19.50;48.71;102740.03;5052372;28;20132;-51
2022/05/06 06:38:09;;;;;;;4.80;3.30;;;;;;;19.51;48.45;102748.94;5071505;28;20492;-50
2022/05/06 06:40:36;;;;;;;6.57;3.90;;;;;;;19.50;48.66;102745.41;5066223;28;20098;-49
2022/05/06 06:43:04;;;;;;;7.20;3.72;;;;;;;19.52;49.17;102742.59;5069550;28;20329;-52
2022/05/06 06:45:31;;;;;;;5.13;3.45;;;;;;;19.53;48.75;102745.16;5068209;28;20151;-51
2022/05/06 06:47:58;;;;;;;7.15;3.75;;;;;;;19.53;48.69;102739.78;5067278;28;20123;-50
2022/05/06 06:50:25;;;;;;;9.88;3.83;;;;;;;19.56;48.85;102753.00;5068449;28;20048;-50
2022/05/06 06:52:52;;;;;;;6.30;3.72;;;;;;;19.56;48.56;102753.00;5067282;28;20044;-46
2022/05/06 06:55:19;;;;;;;5.80;3.60;;;;;;;19.58;48.69;102751.06;5068551;28;20051;-48
2022/05/06 06:57:45;;;;;;;5.75;3.20;;;;;;;19.58;48.80;102745.69;5066576;28;20488;-50
2022/05/06 07:00:13;;;;;;;23.23;4.28;;;;;;;19.60;49.97;102750.94;5066757;28;20424;-48
2022/05/06 07:02:40;;;;;;;28.90;5.07;;;;;;;19.65;51.00;102746.06;5067243;28;20124;-48
2022/05/06 07:05:07;;;;;;;20.38;5.28;;;;;;;19.70;52.65;102760.06;5067815;28;20056;-49
2022/05/06 07:13:25;;;;;;;27.50;6.47;;;;;;;19.84;56.96;102754.44;5069088;28;20052;-51
2022/05/06 07:15:52;;;;;;;21.88;6.22;;;;;;;19.88;57.00;102763.13;5069252;28;20054;-50
2022/05/06 07:18:18;;;;;;;40.50;9.45;;;;;;;19.90;57.65;102771.94;5067736;28;20053;-50
2022/05/06 07:20:45;;;;;;;39.97;12.98;;;;;;;19.93;57.57;102775.25;5069004;28;20111;-52
2022/05/06 07:23:11;;;;;;;40.10;14.40;;;;;;;19.97;59.16;102781.25;5068802;28;20056;-52
2022/05/06 07:25:38;;;;;;;36.30;13.80;;;;;;;19.97;60.07;102775.88;5066663;28;20067;-51
2022/05/06 07:28:06;;;;;;;41.85;14.07;;;;;;;19.99;60.24;102765.84;5065454;28;20044;-51
2022/05/06 07:30:33;;;;;;;36.20;13.95;;;;;;;20.00;59.65;102772.94;5067855;28;20066;-49
2022/05/06 07:33:00;;;;;;;38.55;14.05;;;;;;;20.02;59.50;102772.81;5071188;28;20138;-51
2022/05/06 07:35:26;;;;;;;37.00;13.98;;;;;;;20.03;59.49;102769.19;5068075;28;20171;-50
2022/05/06 07:37:53;;;;;;;34.88;13.70;;;;;;;20.04;59.25;102773.56;5071033;28;20048;-50
2022/05/06 07:40:20;;;;;;;35.03;14.18;;;;;;;20.05;59.22;102767.19;5065933;28;20321;-51
2022/05/06 07:42:50;;;;;;;34.30;12.95;;;;;;;20.05;58.91;102765.38;5066219;28;20132;-48
2022/05/06 07:45:17;;;;;;;29.30;12.90;;;;;;;20.03;58.44;102761.09;5063307;28;20152;-51
2022/05/06 07:47:43;;;;;;;28.70;12.88;;;;;;;20.05;57.88;102765.38;5065285;28;20090;-51
2022/05/06 07:50:26;;;;;;;32.92;13.13;;;;;;;20.07;58.01;102763.44;5065657;28;20509;-49
2022/05/06 07:52:53;;;;;;;29.70;12.85;;;;;;;20.08;57.56;102767.81;5068663;28;20048;-51
2022/05/06 07:55:19;;;;;;;29.45;11.90;;;;;;;20.10;57.45;102767.69;5067864;28;20495;-52
2022/05/06 07:57:46;;;;;;;26.63;12.43;;;;;;;20.10;56.87;102770.38;5067301;28;20143;-47
2022/05/06 08:00:14;;;;;;;32.95;11.48;;;;;;;20.11;56.46;102761.34;5068297;28;20067;-51
2022/05/06 08:05:28;;;;;;;27.00;10.48;;;;;;;20.14;55.66;102758.41;5067486;28;20048;-49
2022/05/06 08:07:55;;;;;;;27.25;10.55;;;;;;;20.16;55.27;102762.69;5066283;28;20047;-48
2022/05/06 08:10:21;;;;;;;20.58;9.60;;;;;;;20.16;55.21;102757.31;5065917;28;20063;-51
2022/05/06 08:12:48;;;;;;;22.92;9.93;;;;;;;20.18;55.25;102759.88;5053657;28;20045;-49
2022/05/06 08:15:14;;;;;;;22.13;10.98;;;;;;;20.18;54.66;102759.88;5066332;28;20128;-49
2022/05/06 08:17:41;;;;;;;24.85;10.13;;;;;;;20.19;54.74;102750.84;5065957;28;20053;-50
2022/05/06 08:20:09;;;;;;;23.00;9.15;;;;;;;20.19;54.40;102746.31;5067530;28;20049;-51
2022/05/06 08:22:36;;;;;;;17.45;9.65;;;;;;;20.21;54.76;102749.72;5068066;28;20045;-50
2022/05/06 08:25:07;;;;;;;20.80;9.63;;;;;;;20.21;54.63;102749.72;5066565;28;20052;-52
2022/05/06 08:27:54;;;;;;;23.30;8.93;;;;;;;20.22;53.98;102745.19;5065493;28;20048;-52
2022/05/06 08:30:20;;;;;;;20.83;9.00;;;;;;;20.22;53.80;102745.19;5066595;28;20072;-52
2022/05/06 08:32:47;;;;;;;17.33;9.43;;;;;;;20.21;53.61;102749.72;5070658;28;20036;-52
2022/05/06 08:35:14;;;;;;;23.27;8.85;;;;;;;20.22;53.05;102750.56;5066802;28;20079;-52
2022/05/06 08:37:45;;;;;;;16.10;8.68;;;;;;;20.21;53.95;102749.72;5070522;28;20131;-50
2022/05/06 08:40:17;;;;;;;18.60;8.70;;;;;;;20.21;53.99;102755.09;5071125;28;20344;-51
2022/05/06 08:42:44;;;;;;;19.08;8.52;;;;;;;20.22;53.65;102745.19;5073339;28;20132;-50
2022/05/06 08:50:53;;;;;;;15.65;8.05;;;;;;;20.21;52.75;102738.09;5071664;28;20166;-52
2022/05/06 08:53:21;;;;;;;18.70;7.30;;;;;;;20.23;53.05;102740.69;5072084;28;20434;-52
2022/05/06 08:55:52;;;;;;;19.42;7.35;;;;;;;20.22;53.11;102742.50;5069135;28;20040;-49
2022/05/06 08:58:20;;;;;;;10.60;6.45;;;;;;;20.23;53.41;102746.91;5071425;28;20450;-48
2022/05/06 09:00:47;;;;;;;13.38;6.93;;;;;;;20.25;53.66;102739.56;5072692;28;20075;-50
2022/05/06 09:03:15;;;;;;;14.00;6.82;;;;;;;20.26;53.60;102741.31;5073208;28;20049;-51
2022/05/06 09:05:53;;;;;;;14.40;7.15;;;;;;;20.29;53.59;102746.41;5072082;28;20131;-52
2022/05/06 09:08:21;;;;;;;12.55;6.72;;;;;;;20.29;53.66;102737.47;5071637;28;20415;-53
2022/05/06 09:10:59;;;;;;;13.32;6.97;;;;;;;20.30;54.19;102739.19;5070817;28;20040;-53
2022/05/06 09:13:26;;;;;;;11.50;5.80;;;;;;;20.32;54.61;102742.63;5070575;28;20047;-52
2022/05/06 09:16:41;;;;;;;12.07;5.88;;;;;;;20.33;54.53;102730.88;5073226;28;20052;-53
2022/05/06 09:19:15;;;;;;;9.90;6.20;;;;;;;20.37;54.50;102733.19;5071396;28;20042;-52
2022/05/06 09:22:02;;;;;;;9.52;5.80;;;;;;;20.38;55.15;102732.25;5069893;28;20064;-51
2022/05/06 09:24:29;;;;;;;12.05;6.00;;;;;;;20.42;54.90;102731.00;5073982;28;20131;-52
2022/05/06 09:27:00;;;;;;;11.75;5.72;;;;;;;20.46;54.46;102734.28;5072054;28;20035;-53
2022/05/06 09:29:46;;;;;;;10.63;5.53;;;;;;;20.50;54.80;102729.53;5070155;28;20123;-53
2022/05/06 09:32:19;;;;;;;9.48;5.38;;;;;;;20.54;54.68;102728.31;5072778;28;20145;-54
2022/05/06 09:34:48;;;;;;;10.25;5.22;;;;;;;20.58;55.02;102737.84;5071431;28;20471;-49
2022/05/06 09:37:36;;;;;;;9.05;5.10;;;;;;;20.62;55.03;102737.50;5071047;28;20045;-53
2022/05/06 09:40:03;;;;;;;8.82;5.50;;;;;;;20.67;54.34;102729.06;5071762;28;20079;-51
2022/05/06 09:42:30;;;;;;;9.02;5.55;;;;;;;20.72;54.74;102728.66;5071880;28;20047;-52
2022/05/06 09:44:56;;;;;;;10.95;5.30;;;;;;;20.76;54.43;102732.81;5066153;28;20067;-52
2022/05/06 09:47:25;;;;;;;9.95;5.55;;;;;;;20.79;54.18;102730.75;5071008;28;20051;-51
2022/05/06 09:49:52;;;;;;;7.38;4.18;;;;;;;20.83;53.81;102725.97;5071231;28;20495;-52
2022/05/06 09:52:19;;;;;;;7.55;4.15;;;;;;;20.86;53.59;102722.97;5067368;28;20076;-53
2022/05/06 09:54:48;;;;;;;6.53;4.00;;;;;;;20.89;53.20;102726.28;5069362;28;20051;-53
2022/05/06 09:57:16;;;;;;;8.05;4.57;;;;;;;20.93;52.72;102714.28;5069212;28;20427;-52
2022/05/06 09:59:42;;;;;;;7.43;4.03;;;;;;;20.97;52.62;102717.56;5072053;28;20054;-52
2022/05/06 10:02:10;;;;;;;9.48;5.15;;;;;;;21.00;53.27;102714.63;5067838;28;20048;-53
2022/05/06 10:04:38;;;;;;;6.07;4.35;;;;;;;21.04;52.69;102717.94;5065566;28;20055;-53
2022/05/06 10:07:07;;;;;;;7.07;4.90;;;;;;;21.06;52.58;102719.50;5068964;28;20075;-51
2022/05/06 10:10:01;;;;;;;9.02;4.88;;;;;;;21.08;52.01;102716.69;5069640;28;20044;-53
2022/05/06 10:12:36;;;;;;;7.68;4.53;;;;;;;21.12;51.89;102708.22;5068351;28;20482;-53
2022/05/06 10:15:08;;;;;;;8.43;4.72;;;;;;;21.14;52.02;102703.53;5068873;28;20044;-52
2022/05/06 10:17:47;;;;;;;8.75;4.63;;;;;;;21.17;52.09;102702.41;5070033;28;20059;-54
2022/05/06 10:20:38;;;;;;;8.10;4.80;;;;;;;21.18;52.10;102696.88;5069911;28;20052;-52
2022/05/06 10:23:07;;;;;;;7.32;5.13;;;;;;;21.21;51.96;102693.09;5060335;28;20053;-53
2022/05/06 10:25:40;;;;;;;6.95;5.00;;;;;;;21.24;51.53;102689.28;5064765;28;20071;-54
2022/05/06 10:34:07;;;;;;;7.82;4.70;;;;;;;21.32;51.24;102684.97;5067573;28;20504;-53
2022/05/06 10:36:45;;;;;;;7.45;5.00;;;;;;;21.33;51.20;102694.78;5064831;28;20076;-50
2022/05/06 10:39:34;;;;;;;6.40;4.13;;;;;;;21.35;51.51;102682.03;5069006;28;20053;-52
2022/05/06 10:42:04;;;;;;;6.38;4.13;;;;;;;21.38;51.26;102680.91;5069693;28;20047;-52
2022/05/06 10:44:43;;;;;;;6.30;4.20;;;;;;;21.39;51.16;102685.31;5069669;28;20159;-51
2022/05/06 10:47:13;;;;;;;7.57;4.40;;;;;;;21.40;50.89;102679.78;5070576;28;20049;-52
2022/05/06 10:49:39;;;;;;;7.65;4.82;;;;;;;21.41;51.28;102676.09;5068996;28;20093;-53
2022/05/06 10:52:19;;;;;;;6.68;4.40;;;;;;;21.43;51.23;102678.69;5071712;28;20044;-52
2022/05/06 10:54:50;;;;;;;6.82;4.18;;;;;;;21.46;51.41;102674.84;5069930;28;20127;-51
2022/05/06 10:57:21;;;;;;;7.68;4.70;;;;;;;21.46;51.34;102678.38;5044528;28;20052;-53
2022/05/06 10:59:51;;;;;;;5.40;3.63;;;;;;;21.48;50.84;102676.44;5070406;28;20138;-53
2022/05/06 11:02:20;;;;;;;5.85;3.90;;;;;;;21.49;51.01;102678.13;5070058;28;20048;-52
2022/05/06 11:04:59;;;;;;;7.32;3.95;;;;;;;21.50;51.02;102666.34;5069898;28;20368;-52
2022/05/06 11:07:28;;;;;;;5.20;3.80;;;;;;;21.52;51.24;102674.34;5069682;28;20058;-52
2022/05/06 11:09:56;;;;;;;6.80;3.78;;;;;;;21.53;50.84;102666.09;5067404;28;20120;-49
2022/05/06 11:12:37;;;;;;;5.57;4.05;;;;;;;;;;5070120;28;20040;-50
2022/05/06 11:15:11;;;;;;;4.57;3.65;;;;;;;21.56;50.80;102663.13;5069099;28;20044;-53
2022/05/06 11:17:37;;;;;;;5.50;3.63;;;;;;;21.56;50.73;102652.34;5069099;28;20335;-53
2022/05/06 11:20:26;;;;;;;5.75;4.05;;;;;;;21.58;50.56;102663.84;5070638;28;20076;-51
2022/05/06 11:22:58;;;;;;;3.88;2.97;;;;;;;21.59;50.41;102670.97;5067204;28;20044;-51
2022/05/06 11:25:27;;;;;;;5.00;3.30;;;;;;;21.60;50.58;102658.34;5066844;28;20179;-51
2022/05/06 11:27:56;;;;;;;5.18;3.53;;;;;;;21.60;50.53;102664.59;5064241;28;20040;-52
2022/05/06 11:30:24;;;;;;;4.55;3.33;;;;;;;21.59;50.55;102657.47;5067735;28;20047;-54
2022/05/06 11:32:57;;;;;;;7.78;3.58;;;;;;;21.59;50.20;102662.03;5069781;28;20032;-55
2022/05/06 11:35:32;;;;;;;6.20;4.43;;;;;;;21.60;50.28;102658.34;5067877;28;20047;-55
2022/05/06 11:38:00;;;;;;;5.50;3.63;;;;;;;21.59;50.29;102646.69;5069925;28;20372;-55
2022/05/06 11:40:37;;;;;;;7.80;4.18;;;;;;;21.61;50.09;102650.09;5068264;28;20399;-54
2022/05/06 11:43:06;;;;;;;7.43;4.15;;;;;;;21.63;50.19;102647.28;5070255;28;20047;-56
2022/05/06 11:48:22;;;;;;;7.80;4.00;;;;;;;21.65;50.19;102646.13;5067639;28;20041;-54
2022/05/06 11:50:54;;;;;;;6.30;3.67;;;;;;;21.66;49.91;102641.59;5064360;28;20060;-52
2022/05/06 11:53:26;;;;;;;7.20;3.92;;;;;;;21.68;50.10;102639.63;5068261;28;20143;-52
2022/05/06 11:55:54;;;;;;;7.80;4.35;;;;;;;21.69;49.90;102644.88;5067639;28;20156;-55
2022/05/06 11:58:22;;;;;;;5.30;3.97;;;;;;;21.71;50.25;102633.09;5067244;28;20196;-53
2022/05/06 12:00:51;;;;;;;5.10;3.75;;;;;;;21.73;49.83;102640.06;5066675;28;20055;-55
2022/05/06 12:03:18;;;;;;;5.80;3.97;;;;;;;21.73;49.93;102637.38;5064476;28;20400;-54
2022/05/06 12:05:59;;;;;;;7.40;4.07;;;;;;;21.74;49.83;102635.53;5066918;28;20048;-55
2022/05/06 12:08:28;;;;;;;6.78;3.83;;;;;;;21.75;49.54;102630.00;5067476;28;20055;-55
2022/05/06 12:11:07;;;;;;;7.10;4.40;;;;;;;21.77;49.58;102640.66;5070819;28;20049;-53